Time;durP1;ratioP1;P1;durP2;ratioP2;P2;SDS_P1;SDS_P2;PMS_P1;PMS_P2;Temp;Humidity;BMP_temperature;BMP_pressure;BME280_temperature;BME280_humidity;BME280_pressure;Samples;Min_cycle;Max_cycle;Signal;HPM_P1;HPM_P2
2024/01/27 00:00:53;;;;;;;1.17;0.65;;;;;;;8.64;52.26;101977.19;5039272;28;20029;-46
2024/01/27 00:03:19;;;;;;;1.95;1.17;;;;;;;8.50;52.29;101986.31;5045265;28;20017;-47
2024/01/27 00:05:44;;;;;;;4.60;2.10;;;;;;;8.44;52.16;101996.94;5043682;28;20377;-47
2024/01/27 00:08:09;;;;;;;12.23;8.38;;;;;;;8.54;52.40;102008.94;5027109;28;20774;-46
2024/01/27 00:10:34;;;;;;;5.27;0.63;;;;;;;8.49;52.08;102031.81;5043656;28;20235;-44
2024/01/27 00:13:00;;;;;;;2.00;1.60;;;;;;;8.59;52.62;102005.31;5035592;28;20299;-45
2024/01/27 00:15:25;;;;;;;1.80;1.15;;;;;;;8.52;52.32;102023.88;5042384;28;20402;-45
2024/01/27 00:17:50;;;;;;;2.50;2.20;;;;;;;8.59;52.26;102021.94;5038456;28;20033;-45
2024/01/27 00:20:16;;;;;;;0.80;0.47;;;;;;;8.64;52.35;102029.66;5036816;28;20680;-44
2024/01/27 00:22:41;;;;;;;2.28;0.43;;;;;;;8.46;52.08;102013.50;5038209;28;20032;-44
2024/01/27 00:25:06;;;;;;;10.07;1.58;;;;;;;8.64;52.64;102024.41;5041170;28;20424;-44
2024/01/27 00:27:32;;;;;;;0.88;0.52;;;;;;;8.62;52.82;102045.44;5040915;28;20044;-44
2024/01/27 00:29:58;;;;;;;4.53;1.58;;;;;;;8.60;53.12;102038.53;5038829;28;20032;-44
2024/01/27 00:32:23;;;;;;;3.00;2.15;;;;;;;8.60;53.10;102033.28;5038985;28;20025;-45
2024/01/27 00:34:48;;;;;;;6.80;2.90;;;;;;;8.59;52.55;102035.06;5036996;28;20156;-45
2024/01/27 00:37:13;;;;;;;10.10;3.90;;;;;;;8.54;52.00;102045.69;5039602;28;20774;-43
2024/01/27 00:39:39;;;;;;;3.30;1.80;;;;;;;8.61;52.45;102048.13;5038166;28;20292;-47
2024/01/27 00:42:04;;;;;;;1.75;0.90;;;;;;;8.53;52.44;102050.94;5040686;28;20433;-43
2024/01/27 00:44:29;;;;;;;9.05;8.32;;;;;;;8.59;52.10;102052.53;5041388;28;20080;-46
2024/01/27 00:46:54;;;;;;;2.17;0.90;;;;;;;8.59;52.88;102047.28;5034479;28;20515;-43
2024/01/27 00:49:20;;;;;;;2.45;1.65;;;;;;;8.65;52.47;102065.50;5042064;28;20309;-45
2024/01/27 00:51:45;;;;;;;1.55;0.63;;;;;;;8.62;52.43;102057.72;5038502;28;20037;-51
2024/01/27 00:54:10;;;;;;;3.40;1.67;;;;;;;8.41;52.56;102067.84;5040246;28;20032;-44
2024/01/27 00:56:36;;;;;;;5.30;0.93;;;;;;;8.50;52.44;102054.53;5048760;28;20684;-45
2024/01/27 00:59:01;;;;;;;1.48;0.75;;;;;;;8.64;52.59;102059.38;5036485;28;20298;-46
2024/01/27 01:01:26;;;;;;;1.77;1.20;;;;;;;8.57;52.82;102054.34;5041063;28;20077;-47
2024/01/27 01:03:51;;;;;;;0.93;0.38;;;;;;;8.60;52.48;102075.25;5041936;28;20111;-44
2024/01/27 01:06:17;;;;;;;1.93;1.33;;;;;;;8.52;52.74;102073.72;5040176;28;20535;-46
2024/01/27 01:08:42;;;;;;;2.85;2.65;;;;;;;8.52;52.53;102126.19;5043422;28;20337;-45
2024/01/27 01:11:07;;;;;;;18.60;4.55;;;;;;;8.47;52.32;102086.06;5043695;28;20029;-46
2024/01/27 01:13:33;;;;;;;1.73;0.90;;;;;;;8.50;52.61;102091.25;5040075;28;20029;-46
2024/01/27 01:15:58;;;;;;;10.33;2.27;;;;;;;8.45;52.61;102080.00;5038475;28;20124;-46
2024/01/27 01:18:23;;;;;;;1.17;0.57;;;;;;;8.52;53.03;102084.22;5056830;28;20280;-45
2024/01/27 01:20:48;;;;;;;8.20;1.95;;;;;;;8.46;52.83;102094.00;5039080;28;20298;-45
2024/01/27 01:23:14;;;;;;;1.10;0.50;;;;;;;8.48;53.16;102095.69;5038397;28;20462;-45
2024/01/27 01:25:39;;;;;;;2.90;0.93;;;;;;;8.48;53.69;102102.69;5042038;28;20028;-45
2024/01/27 01:28:04;;;;;;;1.63;0.77;;;;;;;8.50;53.31;102117.50;5039648;28;20299;-44
2024/01/27 01:30:30;;;;;;;2.05;1.02;;;;;;;8.59;52.79;102126.00;5046998;28;20554;-44
2024/01/27 01:32:55;;;;;;;6.13;2.30;;;;;;;8.52;54.48;102105.19;5047443;28;20119;-44
2024/01/27 01:35:20;;;;;;;1.05;0.43;;;;;;;8.53;53.29;102106.94;5037877;28;20037;-46
2024/01/27 01:37:48;;;;;;;1.80;0.93;;;;;;;8.62;53.19;102108.41;5038212;28;20029;-44
2024/01/27 01:40:15;;;;;;;2.22;0.57;;;;;;;8.61;54.08;102129.44;5043699;28;20047;-44
2024/01/27 01:42:40;;;;;;;2.38;2.20;;;;;;;8.62;53.19;102115.44;5039320;28;20531;-45
2024/01/27 01:45:06;;;;;;;1.33;1.23;;;;;;;8.57;52.59;102133.06;5043550;28;20147;-44
2024/01/27 01:47:31;;;;;;;19.80;2.47;;;;;;;8.47;52.99;102149.03;5039650;28;20132;-45
2024/01/27 01:49:56;;;;;;;3.67;0.67;;;;;;;8.43;53.63;102134.25;5040359;28;20056;-44
2024/01/27 01:52:22;;;;;;;0.65;0.35;;;;;;;8.59;52.80;102123.38;5038651;28;20280;-44
2024/01/27 01:54:50;;;;;;;0.93;0.70;;;;;;;8.54;53.00;102121.78;5040534;28;21254;-45
2024/01/27 01:57:16;;;;;;;0.60;0.40;;;;;;;8.51;53.21;102124.47;5041683;28;20066;-44
2024/01/27 01:59:42;;;;;;;0.77;0.32;;;;;;;8.49;53.15;102126.25;5041151;28;20029;-44
2024/01/27 02:02:08;;;;;;;2.67;0.65;;;;;;;8.44;53.24;102133.34;5043642;28;20067;-44
2024/01/27 02:04:45;;;;;;;3.17;1.80;;;;;;;8.58;52.99;102132.16;5038771;28;20028;-45
2024/01/27 02:07:11;;;;;;;2.40;1.88;;;;;;;8.48;52.83;102148.16;5038840;28;20113;-46
2024/01/27 02:09:36;;;;;;;0.55;0.22;;;;;;;8.52;53.21;102141.94;5023538;28;20033;-44
2024/01/27 02:12:01;;;;;;;1.23;0.80;;;;;;;8.49;53.13;102152.50;5040779;28;20068;-44
2024/01/27 02:14:27;;;;;;;0.85;0.38;;;;;;;8.56;53.86;102137.44;5037125;28;20033;-44
2024/01/27 02:16:53;;;;;;;1.15;0.52;;;;;;;8.50;54.11;102156.84;5048531;28;20047;-44
2024/01/27 02:19:18;;;;;;;1.45;1.00;;;;;;;8.47;53.88;102151.66;5035276;28;20582;-46
2024/01/27 02:21:44;;;;;;;2.45;0.82;;;;;;;8.49;53.35;102164.75;5040214;28;20507;-45
2024/01/27 02:24:10;;;;;;;2.10;1.88;;;;;;;8.39;53.58;102177.22;5038076;28;20064;-45
2024/01/27 02:26:35;;;;;;;4.68;2.13;;;;;;;8.40;53.54;102155.31;5038187;28;20171;-46
2024/01/27 02:29:00;;;;;;;1.33;1.17;;;;;;;8.41;53.89;102170.16;5041971;28;20100;-45
2024/01/27 02:31:26;;;;;;;0.70;0.38;;;;;;;8.48;54.78;102168.25;5050601;28;20040;-44
2024/01/27 02:33:51;;;;;;;3.35;2.92;;;;;;;8.47;53.97;102170.00;5039949;28;20121;-46
2024/01/27 02:36:17;;;;;;;1.17;0.88;;;;;;;8.35;53.49;102165.09;5045509;28;20037;-42
2024/01/27 02:38:42;;;;;;;0.85;0.52;;;;;;;8.43;53.79;102163.09;5046975;28;20040;-43
2024/01/27 02:41:09;;;;;;;0.57;0.32;;;;;;;8.39;54.18;102164.13;5042123;28;20025;-44
2024/01/27 02:43:35;;;;;;;0.90;0.55;;;;;;;8.37;54.02;102158.03;5045955;28;20039;-46
2024/01/27 02:46:00;;;;;;;1.13;0.67;;;;;;;8.41;53.92;102157.03;5044439;28;20040;-43
2024/01/27 02:48:25;;;;;;;1.10;0.70;;;;;;;8.47;54.00;102156.03;5044779;28;20301;-44
2024/01/27 02:50:50;;;;;;;1.38;1.27;;;;;;;8.16;54.08;102162.91;5046412;28;20754;-45
2024/01/27 02:53:16;;;;;;;23.03;2.43;;;;;;;8.08;54.19;102170.97;5042292;28;20029;-46
2024/01/27 02:55:41;;;;;;;2.75;1.38;;;;;;;8.10;55.05;102165.69;5041509;28;20357;-44
2024/01/27 02:58:06;;;;;;;2.53;1.83;;;;;;;8.10;54.65;102170.91;5047786;28;20048;-44
2024/01/27 03:00:31;;;;;;;4.10;1.63;;;;;;;8.05;54.86;102170.19;5045610;28;20307;-44
2024/01/27 03:02:58;;;;;;;3.55;1.33;;;;;;;8.11;55.02;102154.28;5041459;28;20753;-47
2024/01/27 03:05:23;;;;;;;1.60;0.68;;;;;;;8.10;55.37;102163.06;5049053;28;20037;-42
2024/01/27 03:07:48;;;;;;;5.72;1.38;;;;;;;8.03;55.00;102170.22;5061613;28;20095;-42
2024/01/27 03:10:14;;;;;;;4.80;1.37;;;;;;;7.99;55.48;102175.56;5040339;28;20025;-46
2024/01/27 03:12:39;;;;;;;5.43;0.93;;;;;;;8.01;54.82;102186.88;5059473;28;20713;-46
2024/01/27 03:15:05;;;;;;;1.55;0.82;;;;;;;8.07;54.83;102176.25;5042065;28;20028;-44
2024/01/27 03:17:30;;;;;;;1.60;0.95;;;;;;;7.99;55.42;102180.81;5042862;28;20060;-45
2024/01/27 03:19:55;;;;;;;6.00;2.07;;;;;;;8.02;55.92;102189.47;5043103;28;20044;-43
2024/01/27 03:22:20;;;;;;;0.75;0.30;;;;;;;8.00;54.89;102227.97;5047454;28;20318;-48
2024/01/27 03:24:46;;;;;;;2.30;1.53;;;;;;;8.03;55.51;102192.97;5044826;28;21276;-45
2024/01/27 03:27:11;;;;;;;9.07;3.30;;;;;;;7.96;55.85;102221.06;5039618;28;20310;-39
2024/01/27 03:29:36;;;;;;;1.02;0.40;;;;;;;8.08;55.20;102214.69;5035192;28;20021;-39
2024/01/27 03:32:02;;;;;;;14.20;12.82;;;;;;;7.92;55.23;102220.28;5046474;28;20029;-38
2024/01/27 03:34:28;;;;;;;4.32;1.33;;;;;;;7.92;55.75;102222.91;5048702;28;20039;-37
2024/01/27 03:36:53;;;;;;;1.17;0.52;;;;;;;8.04;55.50;102228.75;5041732;28;20389;-38
2024/01/27 03:39:18;;;;;;;2.05;1.55;;;;;;;7.96;55.60;102238.53;5043381;28;20040;-40
2024/01/27 03:41:44;;;;;;;1.55;0.90;;;;;;;8.03;55.88;102219.16;5039036;28;20037;-42
2024/01/27 03:44:12;;;;;;;1.17;1.07;;;;;;;7.99;55.72;102215.75;5037705;28;20032;-38
2024/01/27 03:46:39;;;;;;;16.65;5.28;;;;;;;7.96;55.85;102209.72;5042542;28;20795;-37
2024/01/27 03:49:04;;;;;;;1.27;0.63;;;;;;;7.94;55.77;102218.47;5026120;28;20039;-39
2024/01/27 03:51:29;;;;;;;1.40;0.60;;;;;;;8.01;55.96;102223.59;5048926;28;20123;-39
2024/01/27 03:53:55;;;;;;;1.65;1.48;;;;;;;7.97;55.84;102241.16;5048694;28;20071;-39
2024/01/27 03:56:20;;;;;;;3.42;3.13;;;;;;;8.14;55.91;102229.41;5045726;28;21929;-39
2024/01/27 03:58:45;;;;;;;0.40;0.38;;;;;;;8.19;55.81;102232.75;5045052;28;20041;-40
2024/01/27 04:01:11;;;;;;;0.90;0.47;;;;;;;8.24;55.51;102251.88;5042581;28;20043;-38
2024/01/27 04:03:36;;;;;;;0.77;0.47;;;;;;;8.38;55.79;102265.53;5047278;28;20305;-40
2024/01/27 04:06:02;;;;;;;0.95;0.30;;;;;;;8.23;55.30;102272.00;5043702;28;20025;-40
2024/01/27 04:08:29;;;;;;;0.35;0.20;;;;;;;8.30;55.45;102264.00;5050800;28;20096;-40
2024/01/27 04:10:54;;;;;;;0.82;0.77;;;;;;;8.38;56.13;102273.41;5040992;28;20701;-38
2024/01/27 04:13:19;;;;;;;1.35;0.65;;;;;;;8.34;55.36;102266.50;5038029;28;20127;-38
2024/01/27 04:15:44;;;;;;;3.27;0.57;;;;;;;8.36;55.40;102272.56;5042269;28;20099;-38
2024/01/27 04:18:11;;;;;;;1.80;1.70;;;;;;;8.34;56.27;102279.59;5040566;28;20815;-38
2024/01/27 04:20:37;;;;;;;1.00;0.88;;;;;;;8.36;55.55;102287.47;5040805;28;20408;-38
2024/01/27 04:23:02;;;;;;;0.22;0.20;;;;;;;8.40;55.82;102299.59;5045199;28;20025;-39
2024/01/27 04:25:28;;;;;;;0.30;0.25;;;;;;;8.34;55.44;102299.75;5044674;28;20676;-36
2024/01/27 04:27:53;;;;;;;0.38;0.30;;;;;;;8.44;55.74;102295.16;5026535;28;20047;-39
2024/01/27 04:30:19;;;;;;;2.20;0.85;;;;;;;8.34;55.21;102310.22;5041890;28;20067;-39
2024/01/27 04:32:44;;;;;;;3.93;1.80;;;;;;;8.31;56.34;102318.16;5039432;28;20043;-39
2024/01/27 04:35:10;;;;;;;0.35;0.20;;;;;;;8.42;55.93;102318.78;5041388;28;20310;-40
2024/01/27 04:37:36;;;;;;;0.17;0.13;;;;;;;8.54;55.68;102318.53;5044175;28;20025;-40
2024/01/27 04:40:01;;;;;;;8.48;0.55;;;;;;;8.51;55.62;102295.00;5041117;28;20033;-39
2024/01/27 04:42:26;;;;;;;1.83;0.50;;;;;;;8.56;56.33;102325.47;5043469;28;20028;-41
2024/01/27 04:44:53;;;;;;;1.38;0.40;;;;;;;8.58;55.41;102318.44;5040971;28;20036;-39
2024/01/27 04:47:18;;;;;;;0.93;0.40;;;;;;;8.51;55.76;102322.97;5043407;28;20033;-41
2024/01/27 04:49:43;;;;;;;1.65;0.57;;;;;;;8.54;56.39;102325.53;5038122;28;20051;-38
2024/01/27 04:52:09;;;;;;;0.65;0.22;;;;;;;8.61;55.98;102328.88;5026213;28;20402;-41
2024/01/27 04:54:34;;;;;;;0.20;0.10;;;;;;;8.63;55.87;102319.22;5046287;28;20039;-38
2024/01/27 04:56:59;;;;;;;1.13;1.07;;;;;;;8.53;55.77;102324.69;5041166;28;20899;-37
2024/01/27 04:59:24;;;;;;;0.98;0.35;;;;;;;8.52;55.54;102327.31;5043225;28;20301;-37
2024/01/27 05:01:50;;;;;;;1.65;1.48;;;;;;;8.54;55.98;102334.28;5043302;28;20048;-39
2024/01/27 05:04:16;;;;;;;5.13;1.58;;;;;;;8.62;55.68;102335.84;5042566;28;20068;-38
2024/01/27 05:06:47;;;;;;;1.23;0.43;;;;;;;8.66;55.69;102333.09;5043327;28;20069;-39
2024/01/27 05:09:12;;;;;;;1.33;0.55;;;;;;;8.52;55.44;102340.44;5037931;28;20288;-38
2024/01/27 05:11:38;;;;;;;0.10;0.10;;;;;;;8.71;55.89;102350.50;5039064;28;20048;-38
2024/01/27 05:14:03;;;;;;;0.68;0.50;;;;;;;8.62;55.04;102359.47;5036702;28;20029;-38
2024/01/27 05:16:29;;;;;;;0.22;0.20;;;;;;;8.65;55.54;102359.41;5043907;28;20086;-38
2024/01/27 05:18:54;;;;;;;0.10;0.10;;;;;;;8.67;55.72;102357.59;5038811;28;21109;-38
2024/01/27 05:21:19;;;;;;;1.88;0.68;;;;;;;8.70;55.64;102386.38;5044476;28;20522;-38
2024/01/27 05:23:45;;;;;;;0.90;0.52;;;;;;;8.65;55.69;102368.13;5025992;28;20414;-38
2024/01/27 05:26:13;;;;;;;2.22;0.75;;;;;;;8.72;55.73;102373.22;5039638;28;20033;-39
2024/01/27 05:28:39;;;;;;;7.88;2.65;;;;;;;8.66;55.71;102371.63;5043780;28;20085;-38
2024/01/27 05:31:08;;;;;;;0.63;0.50;;;;;;;8.73;55.78;102362.69;5041452;28;20036;-39
2024/01/27 05:33:33;;;;;;;1.77;0.75;;;;;;;8.56;55.89;102378.84;5042993;28;20040;-38
2024/01/27 05:35:58;;;;;;;12.40;4.60;;;;;;;8.50;55.97;102374.59;5043872;28;20036;-38
2024/01/27 05:38:25;;;;;;;1.73;1.52;;;;;;;8.60;57.23;102379.63;5038401;28;20025;-47
2024/01/27 05:40:51;;;;;;;1.95;0.25;;;;;;;8.63;55.68;102390.06;5040397;28;20037;-39
2024/01/27 05:43:16;;;;;;;1.63;0.77;;;;;;;8.51;55.94;102401.69;5047391;28;20025;-40
2024/01/27 05:45:41;;;;;;;5.40;1.83;;;;;;;8.54;56.15;102386.75;5040339;28;20033;-37
2024/01/27 05:48:07;;;;;;;0.22;0.20;;;;;;;8.58;55.72;102381.41;5022549;28;20295;-38
2024/01/27 05:50:34;;;;;;;0.70;0.52;;;;;;;8.56;55.71;102398.94;5041622;28;20604;-38
2024/01/27 05:52:59;;;;;;;1.13;0.73;;;;;;;8.58;55.69;102386.66;5042522;28;20514;-38
2024/01/27 05:55:24;;;;;;;5.80;0.93;;;;;;;8.53;55.94;102386.78;5048110;28;20029;-38
2024/01/27 05:57:50;;;;;;;0.37;0.30;;;;;;;8.52;55.83;102390.28;5039052;28;20044;-40
2024/01/27 06:00:15;;;;;;;4.27;1.50;;;;;;;8.57;56.18;102405.94;5037220;28;22401;-39
2024/01/27 06:02:40;;;;;;;0.55;0.43;;;;;;;8.56;56.11;102428.69;5053548;28;20287;-39
2024/01/27 06:05:08;;;;;;;0.40;0.30;;;;;;;8.61;56.10;102418.09;5047747;28;20542;-38
2024/01/27 06:07:34;;;;;;;1.90;0.90;;;;;;;8.65;56.03;102420.59;5035011;28;20547;-39
2024/01/27 06:09:59;;;;;;;0.15;0.15;;;;;;;8.69;55.93;102438.00;5050273;28;20120;-40
2024/01/27 06:12:25;;;;;;;1.07;0.57;;;;;;;8.54;55.81;102428.75;5042331;28;20037;-38
2024/01/27 06:14:50;;;;;;;0.47;0.35;;;;;;;8.54;55.92;102435.72;5038940;28;20283;-38
2024/01/27 06:17:16;;;;;;;2.05;1.25;;;;;;;8.54;56.28;102440.97;5060946;28;20025;-39
2024/01/27 06:19:41;;;;;;;1.35;0.55;;;;;;;8.54;56.46;102428.75;5044890;28;20040;-40
2024/01/27 06:22:06;;;;;;;1.40;1.30;;;;;;;8.53;55.96;102432.25;5049486;28;20044;-41
2024/01/27 06:24:32;;;;;;;0.38;0.30;;;;;;;8.50;56.07;102437.56;5044722;28;20386;-37
2024/01/27 06:26:57;;;;;;;0.90;0.38;;;;;;;8.51;56.35;102449.78;5042651;28;20082;-39
2024/01/27 06:29:23;;;;;;;1.23;0.80;;;;;;;8.59;56.33;102457.50;5042741;28;20602;-39
2024/01/27 06:31:48;;;;;;;26.30;3.00;;;;;;;8.53;55.80;102471.63;5041375;28;20434;-37
2024/01/27 06:34:13;;;;;;;6.13;0.40;;;;;;;8.62;55.96;102473.16;5025490;28;20052;-39
2024/01/27 06:36:39;;;;;;;1.17;0.77;;;;;;;8.71;55.85;102460.75;5046353;28;20041;-40
2024/01/27 06:39:04;;;;;;;0.93;0.60;;;;;;;8.72;55.77;102460.69;5047263;28;20033;-37
2024/01/27 06:41:29;;;;;;;4.80;1.13;;;;;;;8.64;56.07;102488.88;5046325;28;21057;-36
2024/01/27 06:43:54;;;;;;;3.63;1.48;;;;;;;8.67;55.81;102475.69;5045820;28;20484;-38
2024/01/27 06:46:20;;;;;;;0.10;0.10;;;;;;;8.72;55.48;102478.22;5045425;28;20029;-38
2024/01/27 06:48:45;;;;;;;0.25;0.25;;;;;;;8.61;55.89;102510.81;5036760;28;20358;-38
2024/01/27 06:51:11;;;;;;;0.88;0.20;;;;;;;8.70;55.55;102491.34;5031244;28;20032;-39
2024/01/27 06:53:36;;;;;;;0.40;0.40;;;;;;;8.63;55.87;102500.28;5041286;28;20033;-39
2024/01/27 06:56:02;;;;;;;0.40;0.30;;;;;;;8.63;56.24;102506.38;5047762;28;20051;-36
2024/01/27 06:58:27;;;;;;;4.85;1.27;;;;;;;8.61;56.47;102520.44;5046161;28;20033;-39
2024/01/27 07:00:52;;;;;;;0.28;0.28;;;;;;;8.57;56.39;102526.63;5041434;28;20033;-39
2024/01/27 07:03:18;;;;;;;0.68;0.52;;;;;;;8.59;56.29;102514.34;5043742;28;20089;-38
2024/01/27 07:05:43;;;;;;;0.00;0.00;;;;;;;8.73;56.01;102516.69;5044997;28;20048;-40
2024/01/27 07:08:09;;;;;;;5.45;5.13;;;;;;;8.66;56.21;102516.81;5045607;28;20048;-38
2024/01/27 07:10:35;;;;;;;0.10;0.10;;;;;;;8.70;56.14;102541.22;5042686;28;20029;-45
2024/01/27 07:13:01;;;;;;;0.10;0.10;;;;;;;8.75;56.16;102526.25;5039584;28;20119;-44
2024/01/27 07:15:27;;;;;;;0.30;0.30;;;;;;;8.81;56.36;102526.13;5046284;28;20506;-48
2024/01/27 07:17:53;;;;;;;1.80;0.45;;;;;;;8.68;56.25;102533.38;5041459;28;20069;-44
2024/01/27 07:20:18;;;;;;;0.10;0.10;;;;;;;8.80;56.36;102529.66;5049289;28;20033;-46
2024/01/27 07:22:44;;;;;;;0.10;0.10;;;;;;;8.81;56.31;102565.50;5041938;28;21386;-42
2024/01/27 07:25:10;;;;;;;0.52;0.52;;;;;;;8.88;56.63;102537.34;5040738;28;20029;-45
2024/01/27 07:27:36;;;;;;;0.00;0.00;;;;;;;8.87;56.68;102540.00;5048939;28;20502;-45
2024/01/27 07:30:02;;;;;;;0.10;0.10;;;;;;;8.87;56.51;102547.88;5052678;28;20476;-43
2024/01/27 07:32:27;;;;;;;1.40;1.30;;;;;;;8.82;56.23;102553.22;5043924;28;20044;-45
2024/01/27 07:34:52;;;;;;;0.10;0.10;;;;;;;8.84;56.37;102554.94;5045483;28;20087;-45
2024/01/27 07:37:18;;;;;;;1.98;1.30;;;;;;;8.93;56.59;102576.63;5047549;28;20037;-47
2024/01/27 07:39:44;;;;;;;0.10;0.10;;;;;;;8.95;56.29;102569.59;5047197;28;20395;-45
2024/01/27 07:42:10;;;;;;;0.10;0.10;;;;;;;8.90;56.66;102574.94;5044329;28;20033;-43
2024/01/27 07:44:35;;;;;;;0.03;0.03;;;;;;;8.99;56.59;102584.38;5052109;28;20013;-46
2024/01/27 07:47:00;;;;;;;22.92;2.65;;;;;;;8.96;56.74;102590.53;5046196;28;20119;-46
2024/01/27 07:49:26;;;;;;;0.95;0.73;;;;;;;8.81;56.44;102586.50;5048071;28;20434;-45
2024/01/27 07:51:51;;;;;;;0.10;0.10;;;;;;;8.92;56.68;102619.53;5051912;28;20037;-45
2024/01/27 07:54:16;;;;;;;0.10;0.10;;;;;;;8.97;56.57;102594.91;5050367;28;20032;-45
2024/01/27 07:56:42;;;;;;;0.22;0.22;;;;;;;8.98;56.73;102658.81;5052000;28;20542;-45
2024/01/27 07:59:13;;;;;;;3.33;1.08;;;;;;;9.06;56.74;102622.72;5047965;28;20033;-45
2024/01/27 08:01:39;;;;;;;0.20;0.20;;;;;;;9.09;56.61;102630.56;5049014;28;20028;-44
2024/01/27 08:04:04;;;;;;;0.70;0.40;;;;;;;9.03;56.19;102653.44;5047702;28;20368;-44
2024/01/27 08:06:30;;;;;;;0.10;0.10;;;;;;;9.15;55.68;102625.16;5050364;28;20021;-46
2024/01/27 08:08:55;;;;;;;0.20;0.20;;;;;;;9.17;55.69;102642.63;5048882;28;20032;-46
2024/01/27 08:11:20;;;;;;;0.75;0.75;;;;;;;9.15;56.55;102645.31;5045268;28;20049;-45
2024/01/27 08:13:46;;;;;;;0.95;0.90;;;;;;;9.19;56.36;102622.47;5050775;28;20035;-46
2024/01/27 08:16:12;;;;;;;0.10;0.10;;;;;;;9.32;55.95;102628.31;5043838;28;20098;-46
2024/01/27 08:18:39;;;;;;;6.43;1.10;;;;;;;9.32;55.70;102623.91;5000914;28;21042;-46
2024/01/27 08:21:05;;;;;;;0.10;0.10;;;;;;;9.37;55.59;102613.34;5037745;28;20086;-47
2024/01/27 08:23:30;;;;;;;0.43;0.30;;;;;;;9.22;56.12;102618.03;5032004;28;20033;-45
2024/01/27 08:25:55;;;;;;;0.15;0.15;;;;;;;9.28;55.99;102617.88;5025455;28;20049;-47
2024/01/27 08:28:20;;;;;;;0.57;0.40;;;;;;;9.29;55.39;102622.22;5027554;28;20399;-45
2024/01/27 08:30:46;;;;;;;4.88;1.38;;;;;;;9.22;55.71;102630.28;5042968;28;20044;-44
2024/01/27 08:33:11;;;;;;;1.45;1.35;;;;;;;9.42;55.81;102627.22;5035256;28;20055;-45
2024/01/27 08:35:37;;;;;;;0.85;0.68;;;;;;;9.33;55.76;102628.28;5041479;28;20404;-44
2024/01/27 08:38:03;;;;;;;0.45;0.40;;;;;;;9.46;55.88;102640.22;5040661;28;20029;-44
2024/01/27 08:40:29;;;;;;;10.52;0.73;;;;;;;9.44;56.29;102639.44;5043161;28;20043;-49
2024/01/27 08:42:54;;;;;;;8.30;1.27;;;;;;;9.27;55.68;102644.19;5041969;28;20048;-49
2024/01/27 08:45:20;;;;;;;0.65;0.65;;;;;;;9.43;56.44;102639.44;5041414;28;20519;-44
2024/01/27 08:47:45;;;;;;;0.10;0.10;;;;;;;9.42;56.27;102656.13;5038017;28;20192;-44
2024/01/27 08:50:10;;;;;;;1.30;0.50;;;;;;;9.51;56.36;102652.41;5042556;28;21020;-44
2024/01/27 08:52:36;;;;;;;0.82;0.68;;;;;;;9.57;55.79;102657.53;5043307;28;20331;-46
2024/01/27 08:55:01;;;;;;;4.60;4.22;;;;;;;9.64;55.99;102672.25;5044897;28;20072;-47
2024/01/27 08:57:26;;;;;;;12.55;1.85;;;;;;;9.64;55.98;102661.75;5025872;28;21355;-44
2024/01/27 08:59:52;;;;;;;5.30;4.90;;;;;;;9.59;56.13;102661.00;5021550;28;20056;-45
2024/01/27 09:02:17;;;;;;;1.63;0.63;;;;;;;9.67;55.92;102666.09;5045812;28;20048;-46
2024/01/27 09:04:42;;;;;;;3.87;2.27;;;;;;;9.60;55.68;102670.63;5038033;28;20033;-45
2024/01/27 09:07:08;;;;;;;2.22;1.05;;;;;;;9.72;56.60;102683.47;5027441;28;21137;-45
2024/01/27 09:09:33;;;;;;;5.88;2.17;;;;;;;9.82;56.24;102673.63;5042572;28;21017;-47
2024/01/27 09:11:59;;;;;;;5.57;3.20;;;;;;;9.83;56.04;102682.34;5027351;28;20036;-49
2024/01/27 09:14:24;;;;;;;4.43;2.30;;;;;;;9.76;56.65;102689.53;5055741;28;20061;-46
2024/01/27 09:16:52;;;;;;;2.33;0.55;;;;;;;9.74;56.56;102697.47;5038179;28;20033;-45
2024/01/27 09:19:17;;;;;;;3.47;1.38;;;;;;;9.85;55.73;102693.72;5040695;28;20076;-47
2024/01/27 09:21:42;;;;;;;3.00;0.87;;;;;;;9.95;56.15;102702.25;5034075;28;20130;-46
2024/01/27 09:24:08;;;;;;;6.03;2.55;;;;;;;9.91;56.94;102698.81;5039533;28;20288;-45
2024/01/27 09:26:33;;;;;;;4.50;1.88;;;;;;;9.80;55.90;102699.06;5038380;28;20024;-47
2024/01/27 09:28:58;;;;;;;3.92;1.77;;;;;;;9.83;56.25;102690.25;5040167;28;20036;-47
2024/01/27 09:31:25;;;;;;;11.52;2.05;;;;;;;9.70;56.59;102701.06;5041239;28;20610;-47
2024/01/27 09:33:54;;;;;;;10.80;1.52;;;;;;;9.56;56.68;102690.84;5037413;28;20041;-47
2024/01/27 09:36:20;;;;;;;3.85;0.98;;;;;;;9.66;56.74;102694.13;5038273;28;20507;-48
2024/01/27 09:38:48;;;;;;;3.95;0.75;;;;;;;9.69;56.12;102716.84;5034615;28;20043;-45
2024/01/27 09:41:14;;;;;;;3.65;0.77;;;;;;;9.66;56.32;102696.75;5036811;28;20714;-46
2024/01/27 09:43:47;;;;;;;6.28;1.95;;;;;;;9.83;56.72;102700.75;5039900;28;20032;-45
2024/01/27 09:46:13;;;;;;;5.72;2.00;;;;;;;9.61;56.59;102702.13;5037998;28;20029;-45
2024/01/27 09:48:39;;;;;;;13.88;1.85;;;;;;;9.51;56.82;102704.97;5042227;28;20635;-45
2024/01/27 09:51:07;;;;;;;4.68;1.15;;;;;;;9.67;56.66;102698.47;5040060;28;20029;-46
2024/01/27 09:53:32;;;;;;;5.95;3.15;;;;;;;9.83;56.31;102711.28;5036874;28;20508;-45
2024/01/27 09:55:58;;;;;;;3.83;0.75;;;;;;;9.78;56.17;102714.03;5038640;28;20028;-46
2024/01/27 09:58:29;;;;;;;7.40;1.23;;;;;;;9.84;56.65;102711.22;5029033;28;20053;-46
2024/01/27 10:00:56;;;;;;;5.15;1.65;;;;;;;9.96;55.83;102709.25;5037717;28;20025;-46
2024/01/27 10:03:24;;;;;;;5.10;1.65;;;;;;;10.09;56.11;102728.19;5039122;28;20036;-46
2024/01/27 10:05:51;;;;;;;7.78;2.45;;;;;;;10.09;55.66;102722.94;5040024;28;20037;-48
2024/01/27 10:08:16;;;;;;;4.70;1.17;;;;;;;10.00;55.59;102731.91;5044244;28;20037;-48
2024/01/27 10:10:42;;;;;;;4.50;0.98;;;;;;;10.02;55.87;102722.22;5040901;28;20036;-46
2024/01/27 10:13:10;;;;;;;3.13;0.60;;;;;;;10.05;56.10;102712.53;5042247;28;20024;-46
2024/01/27 10:15:35;;;;;;;3.35;0.85;;;;;;;10.02;55.82;102727.47;5037491;28;20828;-47
2024/01/27 10:18:06;;;;;;;3.58;0.85;;;;;;;10.12;56.38;102733.41;5023485;28;20127;-47
2024/01/27 10:20:31;;;;;;;15.57;1.70;;;;;;;10.07;55.99;102729.09;5039396;28;20021;-47
2024/01/27 10:22:57;;;;;;;3.40;0.65;;;;;;;10.07;55.85;102733.50;5034130;28;20598;-47
2024/01/27 10:25:22;;;;;;;3.90;1.05;;;;;;;10.14;56.01;102726.34;5035483;28;20192;-47
2024/01/27 10:27:48;;;;;;;7.80;2.95;;;;;;;10.14;56.27;102726.34;5034723;28;20045;-46
2024/01/27 10:30:17;;;;;;;3.25;0.77;;;;;;;10.09;55.99;102728.19;5036557;28;20483;-50
2024/01/27 10:32:43;;;;;;;3.58;1.30;;;;;;;10.24;55.42;102733.09;5036132;28;20032;-45
2024/01/27 10:35:08;;;;;;;6.30;2.13;;;;;;;10.06;55.87;102745.78;5038825;28;20040;-39
2024/01/27 10:37:34;;;;;;;3.05;1.05;;;;;;;10.09;56.14;102728.19;5036403;28;20029;-38
2024/01/27 10:40:09;;;;;;;3.40;1.35;;;;;;;10.13;55.68;102740.38;5036274;28;20033;-39
2024/01/27 10:42:37;;;;;;;2.83;0.82;;;;;;;10.18;55.89;102738.53;5036925;28;20064;-37
2024/01/27 10:45:04;;;;;;;5.93;1.25;;;;;;;10.26;55.42;102744.44;5040648;28;20035;-39
2024/01/27 10:47:30;;;;;;;2.53;0.60;;;;;;;10.28;55.06;102740.03;5036352;28;20521;-38
2024/01/27 10:49:57;;;;;;;2.95;1.10;;;;;;;10.36;55.40;102743.31;5043103;28;20092;-38
2024/01/27 10:52:28;;;;;;;3.90;1.38;;;;;;;10.30;54.88;102759.28;5045339;28;20522;-38
2024/01/27 10:55:02;;;;;;;2.97;0.68;;;;;;;10.50;55.30;102748.28;5041332;28;20032;-38
2024/01/27 10:57:29;;;;;;;3.72;0.90;;;;;;;10.55;55.83;102747.31;5041198;28;20590;-41
2024/01/27 10:59:56;;;;;;;3.28;0.93;;;;;;;10.43;55.06;102749.34;5022502;28;20455;-41
2024/01/27 11:02:22;;;;;;;4.47;1.48;;;;;;;10.44;54.97;102755.47;5042693;28;20029;-38
2024/01/27 11:04:53;;;;;;;3.42;0.88;;;;;;;10.53;55.90;102749.97;5036968;28;20036;-37
2024/01/27 11:07:22;;;;;;;3.40;0.82;;;;;;;10.54;55.58;102750.84;5056727;28;20036;-38
2024/01/27 11:09:50;;;;;;;3.47;1.23;;;;;;;10.52;55.53;102798.25;5019257;28;20495;-42
2024/01/27 11:12:15;;;;;;;3.00;0.88;;;;;;;10.52;54.59;102753.50;5040411;28;20033;-46
2024/01/27 11:14:41;;;;;;;4.38;0.95;;;;;;;10.46;55.13;102756.28;5044303;28;20442;-44
2024/01/27 11:17:06;;;;;;;3.10;0.77;;;;;;;10.44;54.73;102787.03;5043902;28;20025;-44
2024/01/27 11:19:34;;;;;;;3.72;1.05;;;;;;;10.53;55.12;102776.28;5039905;28;20039;-45
2024/01/27 11:22:01;;;;;;;5.15;1.25;;;;;;;10.61;55.15;102779.59;5043609;28;20029;-48
2024/01/27 11:24:26;;;;;;;11.48;1.48;;;;;;;10.63;55.31;102777.78;5040896;28;20502;-44